sensor_id;sensor_type;location;lat;lon;timestamp;pressure;altitude;pressure_sealevel;temperature;humidity
68329;BME280;55182;56.864;60.554;2023-07-30T00:01:43;73226.13;;;-143.60;89.92
68329;BME280;55182;56.864;60.554;2023-07-30T00:04:09;73222.09;;;-143.60;89.85
68329;BME280;55182;56.864;60.554;2023-07-30T00:06:34;73214.06;;;-143.60;89.71
68329;BME280;55182;56.864;60.554;2023-07-30T00:09:00;73200.03;;;-143.60;89.39
68329;BME280;55182;56.864;60.554;2023-07-30T00:11:25;73198.00;;;-143.60;88.99
68329;BME280;55182;56.864;60.554;2023-07-30T00:13:50;73200.03;;;-143.60;89.15
68329;BME280;55182;56.864;60.554;2023-07-30T00:16:16;73202.03;;;-143.60;89.49
68329;BME280;55182;56.864;60.554;2023-07-30T00:18:41;73214.06;;;-143.60;89.65
68329;BME280;55182;56.864;60.554;2023-07-30T00:21:07;73226.13;;;-143.60;90.18
68329;BME280;55182;56.864;60.554;2023-07-30T00:23:33;73242.19;;;-143.60;90.68
68329;BME280;55182;56.864;60.554;2023-07-30T00:25:58;73252.22;;;-143.60;91.30
68329;BME280;55182;56.864;60.554;2023-07-30T00:28:24;73260.25;;;-143.60;92.13
68329;BME280;55182;56.864;60.554;2023-07-30T00:30:49;73268.28;;;-143.60;92.84
68329;BME280;55182;56.864;60.554;2023-07-30T00:33:15;73270.31;;;-143.60;92.87
68329;BME280;55182;56.864;60.554;2023-07-30T00:35:40;73274.31;;;-143.60;93.14
68329;BME280;55182;56.864;60.554;2023-07-30T00:38:06;73280.34;;;-143.60;93.54
68329;BME280;55182;56.864;60.554;2023-07-30T00:40:31;73284.34;;;-143.60;93.88
68329;BME280;55182;56.864;60.554;2023-07-30T00:42:57;73284.34;;;-143.60;93.91
68329;BME280;55182;56.864;60.554;2023-07-30T00:45:22;73276.31;;;-143.60;94.14
68329;BME280;55182;56.864;60.554;2023-07-30T00:47:48;73274.31;;;-143.60;94.04
68329;BME280;55182;56.864;60.554;2023-07-30T00:50:14;73282.34;;;-143.60;93.96
68329;BME280;55182;56.864;60.554;2023-07-30T00:52:40;73284.34;;;-143.60;93.88
68329;BME280;55182;56.864;60.554;2023-07-30T00:55:05;73272.31;;;-143.60;92.98
68329;BME280;55182;56.864;60.554;2023-07-30T00:57:32;73258.25;;;-143.60;90.53
68329;BME280;55182;56.864;60.554;2023-07-30T00:59:58;73242.19;;;-143.60;90.28
68329;BME280;55182;56.864;60.554;2023-07-30T01:02:23;73226.13;;;-143.60;89.52
68329;BME280;55182;56.864;60.554;2023-07-30T01:04:49;73222.09;;;-143.60;89.09
68329;BME280;55182;56.864;60.554;2023-07-30T01:07:15;73214.06;;;-143.60;89.53
68329;BME280;55182;56.864;60.554;2023-07-30T01:09:40;73214.06;;;-143.60;89.03
68329;BME280;55182;56.864;60.554;2023-07-30T01:12:06;73206.03;;;-143.60;89.20
68329;BME280;55182;56.864;60.554;2023-07-30T01:14:32;73202.03;;;-143.60;89.29
68329;BME280;55182;56.864;60.554;2023-07-30T01:16:58;73204.03;;;-143.60;89.23
68329;BME280;55182;56.864;60.554;2023-07-30T01:19:24;73198.00;;;-143.60;89.09
68329;BME280;55182;56.864;60.554;2023-07-30T01:21:49;73200.03;;;-143.60;88.24
68329;BME280;55182;56.864;60.554;2023-07-30T01:24:15;73192.00;;;-143.60;88.20
68329;BME280;55182;56.864;60.554;2023-07-30T01:26:44;73181.94;;;-143.60;87.26
68329;BME280;55182;56.864;60.554;2023-07-30T01:29:24;73173.91;;;-143.60;87.01
68329;BME280;55182;56.864;60.554;2023-07-30T01:31:54;73171.91;;;-143.60;87.16
68329;BME280;55182;56.864;60.554;2023-07-30T01:34:20;73165.88;;;-143.60;87.90
68329;BME280;55182;56.864;60.554;2023-07-30T01:36:47;73169.91;;;-143.60;86.19
68329;BME280;55182;56.864;60.554;2023-07-30T01:39:14;73161.88;;;-143.60;85.69
68329;BME280;55182;56.864;60.554;2023-07-30T01:41:40;73145.81;;;-143.60;85.49
68329;BME280;55182;56.864;60.554;2023-07-30T01:44:05;73129.75;;;-143.60;84.93
68329;BME280;55182;56.864;60.554;2023-07-30T01:46:31;73123.72;;;-143.60;84.37
68329;BME280;55182;56.864;60.554;2023-07-30T01:48:56;73109.66;;;-143.60;84.41
68329;BME280;55182;56.864;60.554;2023-07-30T01:51:21;73099.63;;;-143.60;84.27
68329;BME280;55182;56.864;60.554;2023-07-30T01:53:47;73099.63;;;-143.60;84.04
68329;BME280;55182;56.864;60.554;2023-07-30T01:56:12;73097.63;;;-143.60;84.10
68329;BME280;55182;56.864;60.554;2023-07-30T01:58:38;73093.59;;;-143.60;83.61
68329;BME280;55182;56.864;60.554;2023-07-30T02:01:03;73087.56;;;-143.60;83.18
68329;BME280;55182;56.864;60.554;2023-07-30T02:03:29;73083.56;;;-143.60;82.71
68329;BME280;55182;56.864;60.554;2023-07-30T02:05:54;73081.56;;;-143.60;82.63
68329;BME280;55182;56.864;60.554;2023-07-30T02:08:20;73071.50;;;-143.60;82.95
68329;BME280;55182;56.864;60.554;2023-07-30T02:10:53;73061.47;;;-143.60;82.94
68329;BME280;55182;56.864;60.554;2023-07-30T02:13:19;73055.44;;;-143.60;82.84
68329;BME280;55182;56.864;60.554;2023-07-30T02:15:44;73045.41;;;-143.60;82.32
68329;BME280;55182;56.864;60.554;2023-07-30T02:18:10;73041.38;;;-143.60;82.03
68329;BME280;55182;56.864;60.554;2023-07-30T02:20:35;73037.38;;;-143.60;82.42
68329;BME280;55182;56.864;60.554;2023-07-30T02:23:01;73033.34;;;-143.60;82.68
68329;BME280;55182;56.864;60.554;2023-07-30T02:25:26;73029.34;;;-143.60;81.66
68329;BME280;55182;56.864;60.554;2023-07-30T02:27:51;73023.31;;;-143.60;82.40
68329;BME280;55182;56.864;60.554;2023-07-30T02:30:17;73017.28;;;-143.60;81.83
68329;BME280;55182;56.864;60.554;2023-07-30T02:32:43;73021.31;;;-143.60;81.81
68329;BME280;55182;56.864;60.554;2023-07-30T02:35:08;73015.28;;;-143.60;82.35
68329;BME280;55182;56.864;60.554;2023-07-30T02:37:34;73017.28;;;-143.60;80.98
68329;BME280;55182;56.864;60.554;2023-07-30T02:40:00;73007.25;;;-143.60;81.10
68329;BME280;55182;56.864;60.554;2023-07-30T02:42:25;72999.22;;;-143.60;80.15
68329;BME280;55182;56.864;60.554;2023-07-30T02:44:51;72993.19;;;-143.60;78.88
68329;BME280;55182;56.864;60.554;2023-07-30T02:47:16;72975.13;;;-143.60;77.01
68329;BME280;55182;56.864;60.554;2023-07-30T02:49:42;72967.09;;;-143.60;75.92
68329;BME280;55182;56.864;60.554;2023-07-30T02:52:07;72953.03;;;-143.60;74.27
68329;BME280;55182;56.864;60.554;2023-07-30T02:54:32;72943.00;;;-143.60;73.54
68329;BME280;55182;56.864;60.554;2023-07-30T02:56:58;72930.97;;;-143.60;73.36
68329;BME280;55182;56.864;60.554;2023-07-30T02:59:23;72924.94;;;-143.60;71.51
68329;BME280;55182;56.864;60.554;2023-07-30T03:01:49;72922.94;;;-143.60;71.49
68329;BME280;55182;56.864;60.554;2023-07-30T03:04:14;72928.94;;;-143.60;71.84
68329;BME280;55182;56.864;60.554;2023-07-30T03:06:40;72928.94;;;-143.60;71.79
68329;BME280;55182;56.864;60.554;2023-07-30T03:09:05;72928.94;;;-143.60;72.02
68329;BME280;55182;56.864;60.554;2023-07-30T03:11:31;72928.94;;;-143.60;72.03
68329;BME280;55182;56.864;60.554;2023-07-30T03:13:56;72928.94;;;-143.60;71.95
68329;BME280;55182;56.864;60.554;2023-07-30T03:16:22;72926.94;;;-143.60;71.97
68329;BME280;55182;56.864;60.554;2023-07-30T03:18:48;72922.94;;;-143.60;71.95
68329;BME280;55182;56.864;60.554;2023-07-30T03:21:13;72914.91;;;-143.60;71.69
68329;BME280;55182;56.864;60.554;2023-07-30T03:23:39;72900.84;;;-143.60;71.64
68329;BME280;55182;56.864;60.554;2023-07-30T03:26:04;72886.78;;;-143.60;71.21
68329;BME280;55182;56.864;60.554;2023-07-30T03:28:29;72868.72;;;-143.60;70.18
68329;BME280;55182;56.864;60.554;2023-07-30T03:30:55;72858.66;;;-143.60;69.80
68329;BME280;55182;56.864;60.554;2023-07-30T03:33:20;72842.63;;;-143.60;70.28
68329;BME280;55182;56.864;60.554;2023-07-30T03:35:46;72840.59;;;-143.60;70.29
68329;BME280;55182;56.864;60.554;2023-07-30T03:38:11;72824.53;;;-143.60;69.67
68329;BME280;55182;56.864;60.554;2023-07-30T03:40:36;72810.47;;;-143.60;69.17
68329;BME280;55182;56.864;60.554;2023-07-30T03:43:02;72784.38;;;-143.60;68.61
68329;BME280;55182;56.864;60.554;2023-07-30T03:45:28;72768.31;;;-143.60;68.33
68329;BME280;55182;56.864;60.554;2023-07-30T03:47:54;72760.28;;;-143.60;67.82
68329;BME280;55182;56.864;60.554;2023-07-30T03:50:19;72756.28;;;-143.60;67.09
68329;BME280;55182;56.864;60.554;2023-07-30T03:52:46;72758.28;;;-143.60;67.37
68329;BME280;55182;56.864;60.554;2023-07-30T03:55:12;72756.28;;;-143.60;68.33
68329;BME280;55182;56.864;60.554;2023-07-30T03:57:37;72756.28;;;-143.60;68.07
68329;BME280;55182;56.864;60.554;2023-07-30T04:00:03;72756.28;;;-143.60;68.04
68329;BME280;55182;56.864;60.554;2023-07-30T04:02:29;72748.25;;;-143.60;69.18
68329;BME280;55182;56.864;60.554;2023-07-30T04:04:55;72746.25;;;-143.60;68.52
68329;BME280;55182;56.864;60.554;2023-07-30T04:07:20;72738.22;;;-143.60;68.90
68329;BME280;55182;56.864;60.554;2023-07-30T04:09:45;72732.19;;;-143.60;67.70
68329;BME280;55182;56.864;60.554;2023-07-30T04:12:11;72708.09;;;-143.60;66.28
68329;BME280;55182;56.864;60.554;2023-07-30T04:14:37;72696.03;;;-143.60;66.38
68329;BME280;55182;56.864;60.554;2023-07-30T04:17:02;72686.00;;;-143.60;65.69
68329;BME280;55182;56.864;60.554;2023-07-30T04:19:28;72667.94;;;-143.60;65.45
68329;BME280;55182;56.864;60.554;2023-07-30T04:21:53;72647.84;;;-143.60;64.56
68329;BME280;55182;56.864;60.554;2023-07-30T04:24:19;72635.81;;;-143.60;63.62
68329;BME280;55182;56.864;60.554;2023-07-30T04:26:44;72617.75;;;-143.60;64.47
68329;BME280;55182;56.864;60.554;2023-07-30T04:29:10;72607.69;;;-143.60;62.57
68329;BME280;55182;56.864;60.554;2023-07-30T04:31:35;72587.63;;;-143.60;60.40
68329;BME280;55182;56.864;60.554;2023-07-30T04:34:01;72563.53;;;-143.60;60.22
68329;BME280;55182;56.864;60.554;2023-07-30T04:36:27;72555.50;;;-143.60;61.80
68329;BME280;55182;56.864;60.554;2023-07-30T04:38:53;72539.44;;;-143.60;59.43
68329;BME280;55182;56.864;60.554;2023-07-30T04:41:24;72527.41;;;-143.60;59.75
68329;BME280;55182;56.864;60.554;2023-07-30T04:43:55;72517.34;;;-143.60;58.65
68329;BME280;55182;56.864;60.554;2023-07-30T04:46:21;72501.28;;;-143.60;57.58
68329;BME280;55182;56.864;60.554;2023-07-30T04:48:47;72489.25;;;-143.60;56.88
68329;BME280;55182;56.864;60.554;2023-07-30T04:51:15;72465.16;;;-143.60;56.37
68329;BME280;55182;56.864;60.554;2023-07-30T04:53:40;72451.09;;;-143.60;56.29
68329;BME280;55182;56.864;60.554;2023-07-30T04:56:06;72435.03;;;-143.60;54.52
68329;BME280;55182;56.864;60.554;2023-07-30T04:58:31;72427.00;;;-143.60;54.22
68329;BME280;55182;56.864;60.554;2023-07-30T05:00:57;72408.94;;;-143.60;55.17
68329;BME280;55182;56.864;60.554;2023-07-30T05:03:22;72402.91;;;-143.60;53.82
68329;BME280;55182;56.864;60.554;2023-07-30T05:05:47;72390.88;;;-143.60;53.48
68329;BME280;55182;56.864;60.554;2023-07-30T05:08:13;72384.84;;;-143.60;53.74
68329;BME280;55182;56.864;60.554;2023-07-30T05:10:38;72382.84;;;-143.60;54.20
68329;BME280;55182;56.864;60.554;2023-07-30T05:13:04;72378.84;;;-143.60;52.74
68329;BME280;55182;56.864;60.554;2023-07-30T05:15:29;72376.81;;;-143.60;52.36
68329;BME280;55182;56.864;60.554;2023-07-30T05:17:55;72370.81;;;-143.60;53.25
68329;BME280;55182;56.864;60.554;2023-07-30T05:20:20;72366.78;;;-143.60;52.59
68329;BME280;55182;56.864;60.554;2023-07-30T05:22:46;72362.78;;;-143.60;52.01
68329;BME280;55182;56.864;60.554;2023-07-30T05:25:11;72342.69;;;-143.60;51.30
68329;BME280;55182;56.864;60.554;2023-07-30T05:27:37;72334.66;;;-143.60;50.20
68329;BME280;55182;56.864;60.554;2023-07-30T05:30:02;72330.66;;;-143.60;49.13
68329;BME280;55182;56.864;60.554;2023-07-30T05:32:28;72314.59;;;-143.60;49.02
68329;BME280;55182;56.864;60.554;2023-07-30T05:34:53;72312.59;;;-143.60;49.37
68329;BME280;55182;56.864;60.554;2023-07-30T05:37:19;72308.56;;;-143.60;48.54
68329;BME280;55182;56.864;60.554;2023-07-30T05:39:44;72300.53;;;-143.60;48.15
68329;BME280;55182;56.864;60.554;2023-07-30T05:42:09;72286.47;;;-143.60;48.20
68329;BME280;55182;56.864;60.554;2023-07-30T05:44:35;72272.44;;;-143.60;47.85
68329;BME280;55182;56.864;60.554;2023-07-30T05:47:00;72272.44;;;-143.60;47.00
68329;BME280;55182;56.864;60.554;2023-07-30T05:49:26;72266.41;;;-143.60;47.55
68329;BME280;55182;56.864;60.554;2023-07-30T05:51:51;72266.41;;;-143.60;47.34
68329;BME280;55182;56.864;60.554;2023-07-30T05:54:17;72258.38;;;-143.60;46.75
68329;BME280;55182;56.864;60.554;2023-07-30T05:56:42;72258.38;;;-143.60;47.54
68329;BME280;55182;56.864;60.554;2023-07-30T05:59:08;72246.34;;;-143.60;47.29
68329;BME280;55182;56.864;60.554;2023-07-30T06:01:33;72236.28;;;-143.60;46.64
68329;BME280;55182;56.864;60.554;2023-07-30T06:03:58;72230.28;;;-143.60;47.38
68329;BME280;55182;56.864;60.554;2023-07-30T06:06:24;72216.22;;;-143.60;47.42
68329;BME280;55182;56.864;60.554;2023-07-30T06:08:49;72218.22;;;-143.60;46.59
68329;BME280;55182;56.864;60.554;2023-07-30T06:11:15;72204.19;;;-143.60;45.48
68329;BME280;55182;56.864;60.554;2023-07-30T06:13:40;72194.13;;;-143.60;46.73
68329;BME280;55182;56.864;60.554;2023-07-30T06:16:06;72194.13;;;-143.60;46.96
68329;BME280;55182;56.864;60.554;2023-07-30T06:18:31;72184.09;;;-143.60;46.10
68329;BME280;55182;56.864;60.554;2023-07-30T06:20:56;72182.09;;;-143.60;45.78
68329;BME280;55182;56.864;60.554;2023-07-30T06:23:22;72170.03;;;-143.60;45.12
68329;BME280;55182;56.864;60.554;2023-07-30T06:25:47;72166.03;;;-143.60;45.11
68329;BME280;55182;56.864;60.554;2023-07-30T06:28:13;72162.00;;;-143.60;45.32
68329;BME280;55182;56.864;60.554;2023-07-30T06:30:38;72154.00;;;-143.60;45.10
68329;BME280;55182;56.864;60.554;2023-07-30T06:33:04;72149.97;;;-143.60;46.18
68329;BME280;55182;56.864;60.554;2023-07-30T06:35:29;72145.97;;;-143.60;45.97
68329;BME280;55182;56.864;60.554;2023-07-30T06:37:55;72141.94;;;-143.60;45.88
68329;BME280;55182;56.864;60.554;2023-07-30T06:40:20;72131.91;;;-143.60;46.45
68329;BME280;55182;56.864;60.554;2023-07-30T06:42:46;72133.91;;;-143.60;46.38
68329;BME280;55182;56.864;60.554;2023-07-30T06:45:11;72129.91;;;-143.60;46.36
68329;BME280;55182;56.864;60.554;2023-07-30T06:47:37;72121.88;;;-143.60;46.04
68329;BME280;55182;56.864;60.554;2023-07-30T06:50:03;72101.78;;;-143.60;46.09
68329;BME280;55182;56.864;60.554;2023-07-30T06:52:29;72085.72;;;-143.60;45.88
68329;BME280;55182;56.864;60.554;2023-07-30T06:54:54;72071.69;;;-143.60;45.02
68329;BME280;55182;56.864;60.554;2023-07-30T06:57:19;72057.63;;;-143.60;44.13
68329;BME280;55182;56.864;60.554;2023-07-30T06:59:45;72053.63;;;-143.60;44.92
68329;BME280;55182;56.864;60.554;2023-07-30T07:02:10;72059.63;;;-143.60;44.86
68329;BME280;55182;56.864;60.554;2023-07-30T07:04:36;72045.59;;;-143.60;44.31
68329;BME280;55182;56.864;60.554;2023-07-30T07:07:01;72045.59;;;-143.60;43.84
68329;BME280;55182;56.864;60.554;2023-07-30T07:09:26;72049.59;;;-143.60;43.99
68329;BME280;55182;56.864;60.554;2023-07-30T07:11:52;72037.56;;;-143.60;44.32
68329;BME280;55182;56.864;60.554;2023-07-30T07:14:17;72041.56;;;-143.60;43.33
68329;BME280;55182;56.864;60.554;2023-07-30T07:16:43;72035.53;;;-143.60;44.43
68329;BME280;55182;56.864;60.554;2023-07-30T07:19:08;72029.53;;;-143.60;44.49
68329;BME280;55182;56.864;60.554;2023-07-30T07:21:34;72009.44;;;-143.60;42.85
68329;BME280;55182;56.864;60.554;2023-07-30T07:23:59;72009.44;;;-143.60;42.76
68329;BME280;55182;56.864;60.554;2023-07-30T07:26:25;72009.44;;;-143.60;42.24
68329;BME280;55182;56.864;60.554;2023-07-30T07:28:50;72017.47;;;-143.60;42.75
68329;BME280;55182;56.864;60.554;2023-07-30T07:31:15;72025.50;;;-143.60;43.44
68329;BME280;55182;56.864;60.554;2023-07-30T07:33:41;72013.47;;;-143.60;42.63
68329;BME280;55182;56.864;60.554;2023-07-30T07:36:08;71989.38;;;-143.60;42.42
68329;BME280;55182;56.864;60.554;2023-07-30T07:38:34;71965.28;;;-143.60;41.80
68329;BME280;55182;56.864;60.554;2023-07-30T07:41:00;71961.28;;;-143.60;42.06
68329;BME280;55182;56.864;60.554;2023-07-30T07:43:25;71977.34;;;-143.60;41.37
68329;BME280;55182;56.864;60.554;2023-07-30T07:45:51;71983.34;;;-143.60;41.93
68329;BME280;55182;56.864;60.554;2023-07-30T07:48:16;71985.38;;;-143.60;42.36
68329;BME280;55182;56.864;60.554;2023-07-30T07:50:42;71977.34;;;-143.60;41.26
68329;BME280;55182;56.864;60.554;2023-07-30T07:53:07;71981.34;;;-143.60;41.06
68329;BME280;55182;56.864;60.554;2023-07-30T07:55:32;71981.34;;;-143.60;41.83
68329;BME280;55182;56.864;60.554;2023-07-30T07:57:58;71987.38;;;-143.60;41.49
68329;BME280;55182;56.864;60.554;2023-07-30T08:00:23;71983.34;;;-143.60;41.27
68329;BME280;55182;56.864;60.554;2023-07-30T08:02:49;71967.28;;;-143.60;42.12
68329;BME280;55182;56.864;60.554;2023-07-30T08:05:14;71937.19;;;-143.60;41.98
68329;BME280;55182;56.864;60.554;2023-07-30T08:07:40;71925.13;;;-143.60;42.46
68329;BME280;55182;56.864;60.554;2023-07-30T08:10:05;71915.09;;;-143.60;42.38
68329;BME280;55182;56.864;60.554;2023-07-30T08:12:31;71897.03;;;-143.60;42.64
68329;BME280;55182;56.864;60.554;2023-07-30T08:14:57;71887.00;;;-143.60;41.54
68329;BME280;55182;56.864;60.554;2023-07-30T08:17:22;71878.97;;;-143.60;40.82
68329;BME280;55182;56.864;60.554;2023-07-30T08:19:48;71880.97;;;-143.60;41.07
68329;BME280;55182;56.864;60.554;2023-07-30T08:22:13;71874.97;;;-143.60;40.19
68329;BME280;55182;56.864;60.554;2023-07-30T08:24:39;71858.91;;;-143.60;39.40
68329;BME280;55182;56.864;60.554;2023-07-30T08:27:04;71848.88;;;-143.60;39.30
68329;BME280;55182;56.864;60.554;2023-07-30T08:29:30;71836.81;;;-143.60;38.11
68329;BME280;55182;56.864;60.554;2023-07-30T08:31:55;71842.84;;;-143.60;37.26
68329;BME280;55182;56.864;60.554;2023-07-30T08:34:21;71834.81;;;-143.60;37.71
68329;BME280;55182;56.864;60.554;2023-07-30T08:36:47;71816.75;;;-143.60;38.71
68329;BME280;55182;56.864;60.554;2023-07-30T08:39:12;71800.69;;;-143.60;37.78
68329;BME280;55182;56.864;60.554;2023-07-30T08:41:37;71780.63;;;-143.60;37.24
68329;BME280;55182;56.864;60.554;2023-07-30T08:44:03;71772.59;;;-143.60;36.50
68329;BME280;55182;56.864;60.554;2023-07-30T08:46:29;71760.53;;;-143.60;34.68
68329;BME280;55182;56.864;60.554;2023-07-30T08:48:54;71748.50;;;-143.60;34.97
68329;BME280;55182;56.864;60.554;2023-07-30T08:51:21;71738.47;;;-143.60;35.37
68329;BME280;55182;56.864;60.554;2023-07-30T08:53:46;71750.50;;;-143.60;34.70
68329;BME280;55182;56.864;60.554;2023-07-30T08:56:12;71740.47;;;-143.60;35.18
68329;BME280;55182;56.864;60.554;2023-07-30T08:58:38;71736.44;;;-143.60;34.72
68329;BME280;55182;56.864;60.554;2023-07-30T09:01:06;71734.44;;;-143.60;34.00
68329;BME280;55182;56.864;60.554;2023-07-30T09:03:32;71720.41;;;-143.60;34.29
68329;BME280;55182;56.864;60.554;2023-07-30T09:06:00;71730.44;;;-143.60;34.56
68329;BME280;55182;56.864;60.554;2023-07-30T09:08:25;71736.44;;;-143.60;34.71
68329;BME280;55182;56.864;60.554;2023-07-30T09:10:51;71730.44;;;-143.60;34.82
68329;BME280;55182;56.864;60.554;2023-07-30T09:13:22;71716.38;;;-143.60;34.80
68329;BME280;55182;56.864;60.554;2023-07-30T09:15:48;71712.38;;;-143.60;34.71
68329;BME280;55182;56.864;60.554;2023-07-30T09:18:16;71704.34;;;-143.60;34.82
68329;BME280;55182;56.864;60.554;2023-07-30T09:20:41;71684.25;;;-143.60;35.62
68329;BME280;55182;56.864;60.554;2023-07-30T09:23:07;71688.28;;;-143.60;34.54
68329;BME280;55182;56.864;60.554;2023-07-30T09:25:33;71696.31;;;-143.60;34.92
68329;BME280;55182;56.864;60.554;2023-07-30T09:27:59;71712.38;;;-143.60;34.65
68329;BME280;55182;56.864;60.554;2023-07-30T09:30:25;71718.38;;;-143.60;34.71
68329;BME280;55182;56.864;60.554;2023-07-30T09:32:51;71716.38;;;-143.60;36.24
68329;BME280;55182;56.864;60.554;2023-07-30T09:35:17;71704.34;;;-143.60;36.52
68329;BME280;55182;56.864;60.554;2023-07-30T09:37:42;71678.25;;;-143.60;36.48
68329;BME280;55182;56.864;60.554;2023-07-30T09:40:12;71640.09;;;-143.60;36.18
68329;BME280;55182;56.864;60.554;2023-07-30T09:42:37;71608.00;;;-143.60;36.38
68329;BME280;55182;56.864;60.554;2023-07-30T09:45:03;71587.91;;;-143.60;34.28
68329;BME280;55182;56.864;60.554;2023-07-30T09:47:30;71575.88;;;-143.60;34.09
68329;BME280;55182;56.864;60.554;2023-07-30T09:49:55;71579.88;;;-143.60;34.50
68329;BME280;55182;56.864;60.554;2023-07-30T09:52:21;71575.88;;;-143.60;34.00
68329;BME280;55182;56.864;60.554;2023-07-30T09:54:47;71577.88;;;-143.60;34.03
68329;BME280;55182;56.864;60.554;2023-07-30T09:57:14;71567.84;;;-143.60;34.93
68329;BME280;55182;56.864;60.554;2023-07-30T09:59:39;71571.88;;;-143.60;34.30
68329;BME280;55182;56.864;60.554;2023-07-30T10:02:05;71579.88;;;-143.60;33.78
68329;BME280;55182;56.864;60.554;2023-07-30T10:04:31;71636.09;;;-143.60;34.82
68329;BME280;55182;56.864;60.554;2023-07-30T10:07:02;71670.22;;;-143.60;34.53
68329;BME280;55182;56.864;60.554;2023-07-30T10:09:37;71702.31;;;-143.60;35.01
68329;BME280;55182;56.864;60.554;2023-07-30T10:12:04;71724.41;;;-143.60;35.24
68329;BME280;55182;56.864;60.554;2023-07-30T10:14:30;71736.44;;;-143.60;35.47
68329;BME280;55182;56.864;60.554;2023-07-30T10:16:59;71744.47;;;-143.60;35.27
68329;BME280;55182;56.864;60.554;2023-07-30T10:19:25;71754.53;;;-143.60;35.89
68329;BME280;55182;56.864;60.554;2023-07-30T10:21:53;71756.53;;;-143.60;35.53
68329;BME280;55182;56.864;60.554;2023-07-30T10:24:18;71762.56;;;-143.60;36.78
68329;BME280;55182;56.864;60.554;2023-07-30T10:26:44;71758.53;;;-143.60;35.72
68329;BME280;55182;56.864;60.554;2023-07-30T10:29:13;71752.50;;;-143.60;35.61
68329;BME280;55182;56.864;60.554;2023-07-30T10:31:39;71752.50;;;-143.60;36.23
68329;BME280;55182;56.864;60.554;2023-07-30T10:34:08;71760.53;;;-143.60;36.21
68329;BME280;55182;56.864;60.554;2023-07-30T10:36:43;71772.59;;;-143.60;35.63
68329;BME280;55182;56.864;60.554;2023-07-30T10:39:13;71782.63;;;-143.60;35.88
68329;BME280;55182;56.864;60.554;2023-07-30T10:41:39;71786.63;;;-143.60;36.04
68329;BME280;55182;56.864;60.554;2023-07-30T10:44:04;71792.66;;;-143.60;36.12
68329;BME280;55182;56.864;60.554;2023-07-30T10:46:29;71778.59;;;-143.60;36.10
68329;BME280;55182;56.864;60.554;2023-07-30T10:48:55;71774.59;;;-143.60;35.25
68329;BME280;55182;56.864;60.554;2023-07-30T10:51:20;71772.59;;;-143.60;35.74
68329;BME280;55182;56.864;60.554;2023-07-30T10:53:46;71768.56;;;-143.60;36.02
68329;BME280;55182;56.864;60.554;2023-07-30T10:56:12;71768.56;;;-143.60;35.67
68329;BME280;55182;56.864;60.554;2023-07-30T10:58:38;71768.56;;;-143.60;36.11
68329;BME280;55182;56.864;60.554;2023-07-30T11:01:07;71758.53;;;-143.60;36.19
68329;BME280;55182;56.864;60.554;2023-07-30T11:03:33;71756.53;;;-143.60;36.19
68329;BME280;55182;56.864;60.554;2023-07-30T11:05:59;71756.53;;;-143.60;35.41
68329;BME280;55182;56.864;60.554;2023-07-30T11:11:03;71756.53;;;-143.60;35.73
68329;BME280;55182;56.864;60.554;2023-07-30T11:13:28;71756.53;;;-143.60;35.47
68329;BME280;55182;56.864;60.554;2023-07-30T11:15:54;71754.53;;;-143.60;35.69
68329;BME280;55182;56.864;60.554;2023-07-30T11:18:19;71752.50;;;-143.60;35.17
68329;BME280;55182;56.864;60.554;2023-07-30T11:20:45;71752.50;;;-143.60;35.58
68329;BME280;55182;56.864;60.554;2023-07-30T11:23:17;71748.50;;;-143.60;35.42
68329;BME280;55182;56.864;60.554;2023-07-30T11:25:45;71746.50;;;-143.60;34.86
68329;BME280;55182;56.864;60.554;2023-07-30T11:28:10;71746.50;;;-143.60;34.91
68329;BME280;55182;56.864;60.554;2023-07-30T11:30:36;71732.44;;;-143.60;35.57
68329;BME280;55182;56.864;60.554;2023-07-30T11:33:02;71734.44;;;-143.60;34.93
68329;BME280;55182;56.864;60.554;2023-07-30T11:35:27;71726.41;;;-143.60;34.85
68329;BME280;55182;56.864;60.554;2023-07-30T11:37:53;71724.41;;;-143.60;34.21
68329;BME280;55182;56.864;60.554;2023-07-30T11:40:19;71720.41;;;-143.60;34.88
68329;BME280;55182;56.864;60.554;2023-07-30T11:42:44;71708.34;;;-143.60;34.84
68329;BME280;55182;56.864;60.554;2023-07-30T11:45:19;71666.19;;;-143.60;35.14
68329;BME280;55182;56.864;60.554;2023-07-30T11:47:45;71537.75;;;-143.60;32.67
68329;BME280;55182;56.864;60.554;2023-07-30T11:50:10;71401.25;;;-143.60;31.05
68329;BME280;55182;56.864;60.554;2023-07-30T11:52:36;71280.84;;;-143.60;30.21
68329;BME280;55182;56.864;60.554;2023-07-30T11:55:04;71146.34;;;-143.60;29.10
68329;BME280;55182;56.864;60.554;2023-07-30T11:57:34;71042.00;;;-143.60;27.88
68329;BME280;55182;56.864;60.554;2023-07-30T11:59:59;70945.66;;;-143.60;26.84
68329;BME280;55182;56.864;60.554;2023-07-30T12:02:25;70883.47;;;-143.60;26.86
68329;BME280;55182;56.864;60.554;2023-07-30T12:04:50;70821.25;;;-143.60;26.21
68329;BME280;55182;56.864;60.554;2023-07-30T12:07:22;70761.03;;;-143.60;26.21
68329;BME280;55182;56.864;60.554;2023-07-30T12:09:48;70696.81;;;-143.60;25.33
68329;BME280;55182;56.864;60.554;2023-07-30T12:12:14;70644.66;;;-143.60;25.28
68329;BME280;55182;56.864;60.554;2023-07-30T12:14:43;70614.53;;;-143.60;25.04
68329;BME280;55182;56.864;60.554;2023-07-30T12:17:08;70570.41;;;-143.60;24.43
68329;BME280;55182;56.864;60.554;2023-07-30T12:19:34;70540.31;;;-143.60;24.50
68329;BME280;55182;56.864;60.554;2023-07-30T12:21:59;70506.19;;;-143.60;24.42
68329;BME280;55182;56.864;60.554;2023-07-30T12:24:25;70532.28;;;-143.60;24.03
68329;BME280;55182;56.864;60.554;2023-07-30T12:26:50;70540.31;;;-143.60;24.52